Time;durP1;ratioP1;P1;durP2;ratioP2;P2;SDS_P1;SDS_P2;PMS_P1;PMS_P2;Temp;Humidity;BMP_temperature;BMP_pressure;BME280_temperature;BME280_humidity;BME280_pressure;Samples;Min_cycle;Max_cycle;Signal;HPM_P1;HPM_P2
2021/01/07 00:01:01;;;;;;;0.77;0.77;;;4.70;99.90;;;;;;4997741;28;20206;-82
2021/01/07 00:03:26;;;;;;;0.77;0.77;;;4.90;99.90;;;;;;5015485;28;20197;-79
2021/01/07 00:05:52;;;;;;;2.07;1.20;;;4.90;99.90;;;;;;4997855;28;20173;-82
2021/01/07 00:08:17;;;;;;;0.70;0.70;;;4.90;99.90;;;;;;5023476;28;20176;-80
2021/01/07 00:10:43;;;;;;;0.30;0.30;;;4.70;99.90;;;;;;5031018;28;20173;-80
2021/01/07 00:13:09;;;;;;;0.30;0.10;;;4.80;99.90;;;;;;5014042;28;20200;-84
2021/01/07 00:15:35;;;;;;;0.13;0.13;;;4.70;99.90;;;;;;5017336;28;20555;-83
2021/01/07 00:18:01;;;;;;;1.07;0.97;;;4.80;99.90;;;;;;5017297;28;20196;-84
2021/01/07 00:20:26;;;;;;;0.43;0.43;;;4.70;99.90;;;;;;5016602;28;20176;-84
2021/01/07 00:22:52;;;;;;;0.87;0.60;;;4.80;99.90;;;;;;5035173;28;20203;-84
2021/01/07 00:25:17;;;;;;;0.50;0.50;;;4.80;99.90;;;;;;5016877;28;20192;-83
2021/01/07 00:27:43;;;;;;;0.47;0.47;;;5.00;99.90;;;;;;5016964;28;20214;-84
2021/01/07 00:30:09;;;;;;;0.20;0.20;;;4.90;99.90;;;;;;5035043;28;20188;-84
2021/01/07 00:32:34;;;;;;;0.40;0.40;;;4.90;99.90;;;;;;5018038;28;20176;-84
2021/01/07 00:35:00;;;;;;;0.10;0.10;;;4.90;99.90;;;;;;5034129;28;20203;-84
2021/01/07 00:37:26;;;;;;;0.93;0.20;;;4.80;99.90;;;;;;5033682;28;20269;-84
2021/01/07 00:39:51;;;;;;;1.13;1.03;;;4.70;99.90;;;;;;5016073;28;20543;-83
2021/01/07 00:42:17;;;;;;;0.17;0.17;;;4.50;99.90;;;;;;5016230;28;20691;-83
2021/01/07 00:44:44;;;;;;;1.00;0.60;;;4.50;99.90;;;;;;5016024;28;20208;-83
2021/01/07 00:47:10;;;;;;;0.77;0.57;;;4.60;99.90;;;;;;5016027;28;20172;-82
2021/01/07 00:49:35;;;;;;;0.03;0.03;;;4.60;99.90;;;;;;5017935;28;20184;-82
2021/01/07 00:52:01;;;;;;;0.50;0.20;;;4.40;99.90;;;;;;5015797;28;20226;-82
2021/01/07 00:54:29;;;;;;;0.50;0.50;;;4.50;99.90;;;;;;5016176;28;20199;-83
2021/01/07 00:56:54;;;;;;;0.57;0.57;;;4.60;99.90;;;;;;5033559;28;20295;-83
2021/01/07 00:59:20;;;;;;;0.80;0.80;;;4.70;99.90;;;;;;5014755;28;20613;-83
2021/01/07 01:01:47;;;;;;;1.60;0.70;;;4.70;99.90;;;;;;5016314;28;20182;-82
2021/01/07 01:04:13;;;;;;;0.60;0.60;;;4.40;99.90;;;;;;5016069;28;20189;-83
2021/01/07 01:06:38;;;;;;;0.63;0.63;;;4.40;99.90;;;;;;5015945;28;20184;-84
2021/01/07 01:09:06;;;;;;;1.03;0.93;;;4.50;99.90;;;;;;5016033;28;20176;-83
2021/01/07 01:11:40;;;;;;;0.00;0.00;;;4.50;99.90;;;;;;5033655;28;20187;-82
2021/01/07 01:14:06;;;;;;;1.10;0.77;;;4.70;99.90;;;;;;5016128;28;20208;-83
2021/01/07 01:16:32;;;;;;;0.20;0.20;;;4.70;99.90;;;;;;5016003;28;20211;-83
2021/01/07 01:18:57;;;;;;;0.53;0.53;;;4.70;99.90;;;;;;5016080;28;20548;-83
2021/01/07 01:21:23;;;;;;;0.50;0.50;;;4.80;99.90;;;;;;5015949;28;20180;-82
2021/01/07 01:23:48;;;;;;;1.43;1.33;;;4.80;99.90;;;;;;5015911;28;20196;-82
2021/01/07 01:26:18;;;;;;;0.20;0.20;;;4.70;99.90;;;;;;5015813;28;20175;-84
2021/01/07 01:28:43;;;;;;;0.10;0.10;;;4.80;99.90;;;;;;5033828;28;20211;-84
2021/01/07 01:31:10;;;;;;;2.53;1.03;;;4.60;99.90;;;;;;5017831;28;20180;-84
2021/01/07 01:33:36;;;;;;;1.03;0.93;;;4.60;99.90;;;;;;5020025;28;20718;-82
2021/01/07 01:36:02;;;;;;;0.57;0.57;;;4.70;99.90;;;;;;5037435;28;20249;-83
2021/01/07 01:38:27;;;;;;;0.60;0.60;;;4.80;99.90;;;;;;5037942;28;20203;-84
2021/01/07 01:40:58;;;;;;;3.40;1.70;;;4.80;99.90;;;;;;5019575;28;20553;-82
2021/01/07 01:43:23;;;;;;;0.97;0.97;;;4.80;99.90;;;;;;5019611;28;20191;-84
2021/01/07 01:45:49;;;;;;;1.03;1.00;;;4.80;99.90;;;;;;5037842;28;20165;-84
2021/01/07 01:48:15;;;;;;;0.10;0.10;;;4.70;99.90;;;;;;5020331;28;20643;-84
2021/01/07 01:50:41;;;;;;;0.97;0.90;;;4.90;99.90;;;;;;5019770;28;20188;-84
2021/01/07 01:53:06;;;;;;;0.60;0.60;;;4.90;99.90;;;;;;5019411;28;20643;-83
2021/01/07 01:55:32;;;;;;;1.23;1.23;;;4.90;99.90;;;;;;5019906;28;20176;-84
2021/01/07 01:57:59;;;;;;;1.67;1.57;;;4.90;99.90;;;;;;5019756;28;20200;-84
2021/01/07 02:00:25;;;;;;;0.90;0.90;;;4.80;99.90;;;;;;5019711;28;20172;-84
2021/01/07 02:02:50;;;;;;;1.43;1.33;;;4.60;99.90;;;;;;5019655;28;20168;-84
2021/01/07 02:05:16;;;;;;;1.83;1.27;;;4.50;99.90;;;;;;5019654;28;20196;-84
2021/01/07 02:07:43;;;;;;;1.50;1.40;;;4.50;99.90;;;;;;5019820;28;20176;-84
2021/01/07 02:10:10;;;;;;;2.43;2.23;;;4.50;99.90;;;;;;5019485;28;20659;-84
2021/01/07 02:12:36;;;;;;;2.07;1.93;;;4.50;99.90;;;;;;5019913;28;20190;-84
2021/01/07 02:15:01;;;;;;;2.53;1.03;;;4.70;99.90;;;;;;5036663;28;20223;-82
2021/01/07 02:17:27;;;;;;;3.23;1.90;;;4.70;99.90;;;;;;5036126;28;20204;-82
2021/01/07 02:19:57;;;;;;;0.73;0.73;;;4.70;99.90;;;;;;5018534;28;20628;-82
2021/01/07 02:22:22;;;;;;;1.40;1.40;;;4.60;99.90;;;;;;5017820;28;20222;-83
2021/01/07 02:24:48;;;;;;;0.93;0.93;;;4.70;99.90;;;;;;5036053;28;20559;-82
2021/01/07 02:27:14;;;;;;;3.50;1.20;;;4.60;99.90;;;;;;5018250;28;20172;-82
2021/01/07 02:29:39;;;;;;;1.27;0.90;;;4.70;99.90;;;;;;5017918;28;20192;-83
2021/01/07 02:32:06;;;;;;;0.57;0.50;;;4.70;99.90;;;;;;5018204;28;20172;-83
2021/01/07 02:34:31;;;;;;;1.27;1.17;;;4.70;99.90;;;;;;5017903;28;20195;-82
2021/01/07 02:36:58;;;;;;;0.67;0.67;;;4.60;99.90;;;;;;5018166;28;20204;-82
2021/01/07 02:39:24;;;;;;;1.13;1.03;;;4.70;99.90;;;;;;5035905;28;20202;-83
2021/01/07 02:41:53;;;;;;;0.30;0.30;;;4.70;99.90;;;;;;5035650;28;20182;-82
2021/01/07 02:44:20;;;;;;;1.40;1.07;;;4.60;99.90;;;;;;5035852;28;20200;-82
2021/01/07 02:46:46;;;;;;;3.03;1.97;;;4.60;99.90;;;;;;5035977;28;20532;-83
2021/01/07 02:49:12;;;;;;;2.70;2.47;;;4.60;99.90;;;;;;5035927;28;20205;-84
2021/01/07 02:51:37;;;;;;;1.27;1.20;;;4.60;99.90;;;;;;5018009;28;20211;-82
2021/01/07 02:54:04;;;;;;;3.50;3.20;;;4.60;99.90;;;;;;5018037;28;20268;-82
2021/01/07 02:56:33;;;;;;;2.83;2.63;;;4.70;99.90;;;;;;5035632;28;20172;-83
2021/01/07 02:59:00;;;;;;;5.07;2.23;;;4.70;99.90;;;;;;5017805;28;20266;-82
2021/01/07 03:01:26;;;;;;;3.57;2.57;;;4.80;99.90;;;;;;5018022;28;20218;-82
2021/01/07 03:03:51;;;;;;;1.67;1.57;;;4.80;99.90;;;;;;5017900;28;20195;-82
2021/01/07 03:06:17;;;;;;;2.90;2.63;;;4.80;99.90;;;;;;5017933;28;20180;-84
2021/01/07 03:08:42;;;;;;;1.70;1.33;;;4.70;99.90;;;;;;5035440;28;20254;-84
2021/01/07 03:11:09;;;;;;;2.10;1.97;;;4.70;99.90;;;;;;5018337;28;20179;-84
2021/01/07 03:13:35;;;;;;;2.63;1.67;;;4.70;99.90;;;;;;5017998;28;20195;-84
2021/01/07 03:16:01;;;;;;;3.30;1.90;;;4.60;99.90;;;;;;5035852;28;20706;-84
2021/01/07 03:18:26;;;;;;;2.03;1.83;;;4.60;99.90;;;;;;5035618;28;20200;-84
2021/01/07 03:20:52;;;;;;;1.60;1.50;;;4.60;99.90;;;;;;5018089;28;20204;-82
2021/01/07 03:23:17;;;;;;;2.20;2.03;;;4.70;99.90;;;;;;5018163;28;20218;-83
2021/01/07 03:25:43;;;;;;;1.93;1.80;;;4.60;99.90;;;;;;5017829;28;20176;-82
2021/01/07 03:28:08;;;;;;;3.13;2.63;;;4.50;99.90;;;;;;5035596;28;20192;-82
2021/01/07 03:30:34;;;;;;;11.60;1.47;;;4.70;99.90;;;;;;5036322;28;20639;-83
2021/01/07 03:32:59;;;;;;;2.47;1.80;;;4.50;99.90;;;;;;5018250;28;20585;-82
2021/01/07 03:35:25;;;;;;;1.23;1.23;;;4.70;99.90;;;;;;5017849;28;20208;-84
2021/01/07 03:37:50;;;;;;;1.23;1.13;;;4.50;99.90;;;;;;5018503;28;20646;-84
2021/01/07 03:40:16;;;;;;;2.13;2.03;;;4.60;99.90;;;;;;5017860;28;20327;-84
2021/01/07 03:42:41;;;;;;;3.23;2.93;;;4.70;99.90;;;;;;5017868;28;20570;-84
2021/01/07 03:45:07;;;;;;;2.80;1.63;;;4.80;99.90;;;;;;5017793;28;20196;-84
2021/01/07 03:47:33;;;;;;;2.93;2.73;;;4.90;99.90;;;;;;5017883;28;20177;-84
2021/01/07 03:49:59;;;;;;;1.47;1.37;;;4.90;99.90;;;;;;5017695;28;20176;-84
2021/01/07 03:52:24;;;;;;;1.83;1.73;;;5.00;99.90;;;;;;5018201;28;20184;-83
2021/01/07 03:54:50;;;;;;;3.60;2.33;;;4.80;99.90;;;;;;5015967;28;20601;-83
2021/01/07 03:57:15;;;;;;;1.90;1.70;;;4.80;99.90;;;;;;5034185;28;20556;-83
2021/01/07 03:59:41;;;;;;;3.30;1.80;;;4.70;99.90;;;;;;5034277;28;20176;-82
2021/01/07 04:02:06;;;;;;;5.83;3.60;;;4.60;99.90;;;;;;5016081;28;20176;-82
2021/01/07 04:04:32;;;;;;;2.17;1.60;;;4.50;99.90;;;;;;5016249;28;20196;-82
2021/01/07 04:06:57;;;;;;;2.63;2.53;;;4.70;99.90;;;;;;5034287;28;20230;-83
2021/01/07 04:09:23;;;;;;;2.40;2.30;;;4.80;99.90;;;;;;5034309;28;20184;-82
2021/01/07 04:11:49;;;;;;;1.60;0.77;;;4.70;99.90;;;;;;5034731;28;20223;-82
2021/01/07 04:14:14;;;;;;;2.67;2.47;;;4.60;99.90;;;;;;5016251;28;20200;-82
2021/01/07 04:16:40;;;;;;;2.10;1.90;;;4.70;99.90;;;;;;5016093;28;20230;-83
2021/01/07 04:19:05;;;;;;;3.53;2.43;;;4.60;99.90;;;;;;5034373;28;20199;-84
2021/01/07 04:21:31;;;;;;;1.87;1.60;;;4.50;99.90;;;;;;5016258;28;20517;-84
2021/01/07 04:23:56;;;;;;;1.67;1.57;;;4.60;99.90;;;;;;5016034;28;20191;-82
2021/01/07 04:26:23;;;;;;;2.13;1.77;;;4.60;99.90;;;;;;5034434;28;20172;-82
2021/01/07 04:28:49;;;;;;;1.13;1.13;;;4.70;99.90;;;;;;5034424;28;20594;-84
2021/01/07 04:31:14;;;;;;;1.70;1.60;;;4.60;99.90;;;;;;5016129;28;20180;-83
2021/01/07 04:33:40;;;;;;;2.77;2.57;;;4.60;99.90;;;;;;5016282;28;20223;-83
2021/01/07 04:36:05;;;;;;;3.30;1.80;;;4.60;99.90;;;;;;5016572;28;20234;-82
2021/01/07 04:38:31;;;;;;;3.17;2.10;;;4.60;99.90;;;;;;5034224;28;20216;-83
2021/01/07 04:40:57;;;;;;;2.80;2.60;;;4.50;99.90;;;;;;5016417;28;20184;-82
2021/01/07 04:43:22;;;;;;;2.10;2.00;;;4.40;99.90;;;;;;5015864;28;20172;-84
2021/01/07 04:45:48;;;;;;;1.83;1.73;;;4.30;99.90;;;;;;5034194;28;20628;-82
2021/01/07 04:48:14;;;;;;;2.47;1.53;;;4.40;99.90;;;;;;5016510;28;20228;-83
2021/01/07 04:50:39;;;;;;;2.03;0.97;;;4.30;99.90;;;;;;5016545;28;20179;-84
2021/01/07 04:53:06;;;;;;;0.70;0.70;;;4.50;99.90;;;;;;5016425;28;20206;-84
2021/01/07 04:55:31;;;;;;;0.47;0.47;;;4.40;99.90;;;;;;5016569;28;20183;-84
2021/01/07 04:57:57;;;;;;;4.43;1.83;;;4.50;99.90;;;;;;5016399;28;20204;-83
2021/01/07 05:00:23;;;;;;;2.47;2.23;;;4.40;99.90;;;;;;5016526;28;20583;-84
2021/01/07 05:02:49;;;;;;;0.80;0.80;;;4.40;99.90;;;;;;5034379;28;20624;-84
2021/01/07 05:05:15;;;;;;;2.50;2.03;;;4.40;99.90;;;;;;5017331;28;20532;-83
2021/01/07 05:07:40;;;;;;;0.40;0.40;;;4.40;99.90;;;;;;5038390;28;20263;-83
2021/01/07 05:10:09;;;;;;;1.83;1.33;;;4.50;99.90;;;;;;5020671;28;20516;-83
2021/01/07 05:12:35;;;;;;;2.93;2.53;;;4.50;99.90;;;;;;5020679;28;20176;-84
2021/01/07 05:15:02;;;;;;;1.97;1.70;;;4.40;99.90;;;;;;5020659;28;20204;-83
2021/01/07 05:17:28;;;;;;;1.77;1.67;;;4.40;99.90;;;;;;5020309;28;20203;-84
2021/01/07 05:19:54;;;;;;;2.27;1.47;;;4.30;99.90;;;;;;5020713;28;20176;-84
2021/01/07 05:22:20;;;;;;;3.57;2.97;;;4.20;99.90;;;;;;5020559;28;20239;-83
2021/01/07 05:24:50;;;;;;;1.27;1.17;;;4.20;99.90;;;;;;5020185;28;20212;-84
2021/01/07 05:27:15;;;;;;;2.20;1.30;;;4.20;99.90;;;;;;5038285;28;20169;-84
2021/01/07 05:29:42;;;;;;;0.93;0.93;;;4.10;99.90;;;;;;5047859;23;20219;-80
2021/01/07 05:32:09;;;;;;;1.50;1.40;;;4.20;99.90;;;;;;5057116;28;20172;-80
2021/01/07 05:34:48;;;;;;;1.23;0.60;;;4.30;99.90;;;;;;5027061;28;20614;-80
2021/01/07 05:37:17;;;;;;;2.00;1.17;;;4.30;99.90;;;;;;5037344;28;20199;-80
2021/01/07 05:39:48;;;;;;;1.60;0.93;;;4.30;99.90;;;;;;5037802;28;20176;-80
2021/01/07 05:42:14;;;;;;;0.57;0.57;;;4.30;99.90;;;;;;5037407;28;20658;-80
2021/01/07 05:44:47;;;;;;;0.63;0.63;;;4.40;99.90;;;;;;5037426;28;20192;-80
2021/01/07 05:47:29;;;;;;;2.10;1.90;;;4.30;99.90;;;;;;5037605;28;20164;-80
2021/01/07 05:49:55;;;;;;;1.70;1.60;;;4.40;99.90;;;;;;5037624;28;20218;-80
2021/01/07 05:52:22;;;;;;;0.37;0.37;;;4.40;99.90;;;;;;5037760;28;20175;-80
2021/01/07 05:54:49;;;;;;;0.33;0.33;;;4.30;99.90;;;;;;5037611;28;20203;-80
2021/01/07 05:57:18;;;;;;;0.60;0.60;;;4.20;99.90;;;;;;5037992;28;20715;-80
2021/01/07 05:59:47;;;;;;;0.40;0.40;;;4.30;99.90;;;;;;5020148;28;20247;-80
2021/01/07 06:02:15;;;;;;;0.50;0.50;;;4.40;99.90;;;;;;5037725;28;20164;-80
2021/01/07 06:04:43;;;;;;;0.27;0.27;;;4.30;99.90;;;;;;5020067;28;20196;-80
2021/01/07 06:07:09;;;;;;;0.47;0.47;;;4.20;99.90;;;;;;5019975;28;20195;-81
2021/01/07 06:09:36;;;;;;;1.43;1.10;;;4.30;99.90;;;;;;5019749;28;20583;-80
2021/01/07 06:12:02;;;;;;;0.83;0.83;;;4.30;99.90;;;;;;5037325;28;20176;-80
2021/01/07 06:14:28;;;;;;;0.30;0.30;;;4.30;99.90;;;;;;5019411;28;20192;-80
2021/01/07 06:16:55;;;;;;;0.43;0.43;;;4.40;99.90;;;;;;5019178;28;20203;-80
2021/01/07 06:19:44;;;;;;;0.27;0.17;;;4.30;99.90;;;;;;5037752;28;20169;-80
2021/01/07 06:22:15;;;;;;;1.23;1.13;;;4.50;99.90;;;;;;5019715;28;20645;-80
2021/01/07 06:24:43;;;;;;;0.50;0.50;;;4.30;99.90;;;;;;5019627;28;20188;-81
2021/01/07 06:27:30;;;;;;;0.77;0.77;;;4.40;99.90;;;;;;5020089;28;20582;-80
2021/01/07 06:30:11;;;;;;;3.03;2.33;;;4.50;99.90;;;;;;5019743;28;20191;-81
2021/01/07 06:32:41;;;;;;;0.80;0.80;;;4.50;99.90;;;;;;5037445;28;20172;-81
2021/01/07 06:35:15;;;;;;;2.13;1.10;;;4.40;99.90;;;;;;5019672;28;20199;-81
2021/01/07 06:37:41;;;;;;;0.40;0.20;;;4.50;99.90;;;;;;5020458;28;20200;-81
2021/01/07 06:40:11;;;;;;;2.97;2.00;;;4.60;99.90;;;;;;5037642;28;20168;-82
2021/01/07 06:42:48;;;;;;;0.37;0.37;;;4.50;99.90;;;;;;5017877;28;20226;-82
2021/01/07 06:45:14;;;;;;;0.87;0.87;;;4.40;99.90;;;;;;5018226;28;20218;-83
2021/01/07 06:47:42;;;;;;;2.47;0.80;;;4.50;99.90;;;;;;5036074;28;20180;-82
2021/01/07 06:50:12;;;;;;;1.47;1.37;;;4.60;99.90;;;;;;5018052;28;20190;-82
2021/01/07 06:52:39;;;;;;;0.93;0.90;;;4.70;99.90;;;;;;5014900;28;20176;-83
2021/01/07 06:55:09;;;;;;;1.73;1.63;;;4.60;99.90;;;;;;5020494;28;20203;-83
2021/01/07 06:57:55;;;;;;;3.07;2.73;;;4.60;99.90;;;;;;5016121;28;20204;-79
2021/01/07 07:00:23;;;;;;;1.23;1.17;;;4.50;99.90;;;;;;5014537;28;20184;-82
2021/01/07 07:03:03;;;;;;;1.87;1.77;;;4.50;99.90;;;;;;5031146;28;20658;-83
2021/01/07 07:05:32;;;;;;;1.93;1.80;;;4.50;99.90;;;;;;5010907;28;20616;-81
2021/01/07 07:08:05;;;;;;;2.40;2.20;;;4.50;99.90;;;;;;5017052;28;20168;-81
2021/01/07 07:10:34;;;;;;;0.65;0.65;;;4.60;99.90;;;;;;5019843;28;20396;-80
2021/01/07 07:13:13;;;;;;;2.67;1.70;;;4.60;99.90;;;;;;5036459;28;20191;-78
2021/01/07 07:15:40;;;;;;;3.63;2.13;;;4.60;99.90;;;;;;5003087;28;20179;-80
2021/01/07 07:18:05;;;;;;;0.50;0.50;;;4.50;99.90;;;;;;5030745;28;20200;-78
2021/01/07 07:20:44;;;;;;;1.97;1.37;;;4.60;99.90;;;;;;5014844;28;20579;-78
2021/01/07 07:23:19;;;;;;;6.30;2.93;;;4.70;99.90;;;;;;5011206;28;20590;-78
2021/01/07 07:25:50;;;;;;;0.63;0.63;;;4.80;99.90;;;;;;5038424;28;20523;-78
2021/01/07 07:28:18;;;;;;;2.27;1.73;;;4.80;99.90;;;;;;5010463;28;20231;-77
2021/01/07 07:30:46;;;;;;;2.67;1.77;;;4.70;99.90;;;;;;5020110;28;20230;-78
2021/01/07 07:33:29;;;;;;;1.07;0.97;;;4.70;99.90;;;;;;5020383;28;20180;-78
2021/01/07 07:35:55;;;;;;;1.80;1.70;;;4.70;99.90;;;;;;5016136;28;20176;-78
2021/01/07 07:38:28;;;;;;;0.50;0.50;;;4.70;99.90;;;;;;5018857;28;20207;-79
2021/01/07 07:41:05;;;;;;;1.97;1.27;;;4.60;99.90;;;;;;5041870;28;20161;-82
2021/01/07 07:43:32;;;;;;;1.20;0.90;;;4.70;99.90;;;;;;5041684;28;20187;-81
2021/01/07 07:45:59;;;;;;;1.30;1.13;;;4.70;99.90;;;;;;5021513;28;20225;-79
2021/01/07 07:48:26;;;;;;;1.50;1.10;;;4.60;99.90;;;;;;5041719;28;20188;-84
2021/01/07 07:51:10;;;;;;;1.73;1.03;;;4.50;99.90;;;;;;5018603;28;20268;-82
2021/01/07 07:53:37;;;;;;;0.77;0.77;;;4.50;99.90;;;;;;5018172;28;20223;-83
2021/01/07 07:56:03;;;;;;;0.83;0.83;;;4.70;99.90;;;;;;5026617;28;20181;-82
2021/01/07 07:58:29;;;;;;;1.63;1.53;;;4.70;99.90;;;;;;5046320;28;20207;-83
2021/01/07 08:00:59;;;;;;;0.50;0.50;;;4.60;99.90;;;;;;5041119;28;20194;-83
2021/01/07 08:03:29;;;;;;;1.27;0.90;;;4.60;99.90;;;;;;5020534;28;20200;-81
2021/01/07 08:05:59;;;;;;;1.47;1.37;;;4.50;99.90;;;;;;5036525;28;20256;-84
2021/01/07 08:08:27;;;;;;;1.63;1.53;;;4.30;99.90;;;;;;5017339;28;20180;-84
2021/01/07 08:10:54;;;;;;;6.17;2.63;;;4.40;99.90;;;;;;5018009;28;20188;-84
2021/01/07 08:13:21;;;;;;;0.83;0.83;;;4.50;99.90;;;;;;5016662;28;20180;-84
2021/01/07 08:15:54;;;;;;;1.93;1.83;;;4.60;99.90;;;;;;5019571;28;20182;-83
2021/01/07 08:18:25;;;;;;;0.60;0.60;;;4.60;99.90;;;;;;5019283;28;20200;-86
2021/01/07 08:20:54;;;;;;;3.07;1.30;;;4.60;99.90;;;;;;5017319;28;20191;-86
2021/01/07 08:23:21;;;;;;;1.03;0.83;;;4.50;99.90;;;;;;5017139;28;20215;-85
2021/01/07 08:25:49;;;;;;;1.37;1.20;;;4.40;99.90;;;;;;5017233;28;20176;-81
2021/01/07 08:28:37;;;;;;;0.50;0.47;;;4.50;99.90;;;;;;5018051;28;20672;-81
2021/01/07 08:31:14;;;;;;;0.20;0.20;;;4.50;99.90;;;;;;5021093;28;20184;-81
2021/01/07 08:33:40;;;;;;;0.17;0.17;;;4.70;99.90;;;;;;5020813;28;20200;-80
2021/01/07 08:36:12;;;;;;;2.03;1.33;;;4.70;99.90;;;;;;5021477;28;20180;-79
2021/01/07 08:38:38;;;;;;;0.47;0.27;;;4.60;99.90;;;;;;5021879;28;20203;-79
2021/01/07 08:41:14;;;;;;;0.27;0.27;;;4.70;99.90;;;;;;5020949;28;20171;-79
2021/01/07 08:43:42;;;;;;;1.13;0.47;;;4.50;99.90;;;;;;5041384;28;20195;-79
2021/01/07 08:46:26;;;;;;;0.37;0.37;;;4.40;99.90;;;;;;5039679;28;20172;-79
2021/01/07 08:48:58;;;;;;;1.37;0.90;;;4.40;99.90;;;;;;5022222;28;20184;-79
2021/01/07 08:51:24;;;;;;;2.33;1.47;;;4.60;99.90;;;;;;5040700;28;20171;-78
2021/01/07 08:53:53;;;;;;;1.43;1.07;;;4.50;99.90;;;;;;5022393;28;20291;-80
2021/01/07 08:56:33;;;;;;;0.77;0.70;;;4.50;99.90;;;;;;5021969;28;20272;-81
2021/01/07 08:59:30;;;;;;;0.87;0.87;;;4.40;99.90;;;;;;5023598;28;20233;-80
2021/01/07 09:02:20;;;;;;;0.90;0.90;;;4.40;99.90;;;;;;5022685;28;20694;-81
2021/01/07 09:04:49;;;;;;;2.63;0.73;;;4.30;99.90;;;;;;5022876;28;20727;-79
2021/01/07 09:07:14;;;;;;;0.93;0.93;;;4.30;99.90;;;;;;5041673;28;20174;-79
2021/01/07 09:09:46;;;;;;;0.93;0.93;;;4.50;99.90;;;;;;5023887;28;20196;-79
2021/01/07 09:12:28;;;;;;;0.67;0.67;;;4.40;99.90;;;;;;5043033;28;20298;-79
2021/01/07 09:15:04;;;;;;;0.40;0.40;;;4.30;99.90;;;;;;5042565;28;20533;-79
2021/01/07 09:17:52;;;;;;;2.63;0.57;;;4.40;99.90;;;;;;5047059;28;20219;-79
2021/01/07 09:20:20;;;;;;;0.70;0.70;;;4.40;99.90;;;;;;5027147;28;20171;-80
2021/01/07 09:22:47;;;;;;;0.97;0.70;;;4.50;99.90;;;;;;5045007;28;20198;-82
2021/01/07 09:25:17;;;;;;;1.33;1.23;;;4.60;99.90;;;;;;5020235;28;20239;-79
2021/01/07 09:27:44;;;;;;;0.40;0.40;;;4.50;99.90;;;;;;5041045;28;20240;-78
2021/01/07 09:30:10;;;;;;;0.20;0.20;;;4.50;99.90;;;;;;5023990;28;20195;-77
2021/01/07 09:32:36;;;;;;;0.63;0.27;;;4.60;99.90;;;;;;5024375;28;20169;-78
2021/01/07 09:35:02;;;;;;;0.70;0.67;;;4.70;99.90;;;;;;5042248;28;20195;-78
2021/01/07 09:37:28;;;;;;;0.53;0.43;;;4.70;99.90;;;;;;5024329;28;20638;-78
2021/01/07 09:39:55;;;;;;;0.30;0.30;;;4.60;99.90;;;;;;5024859;28;20196;-78
2021/01/07 09:42:21;;;;;;;0.77;0.77;;;4.60;99.90;;;;;;5024639;28;20161;-78
2021/01/07 09:44:48;;;;;;;2.60;1.77;;;4.80;99.90;;;;;;5042839;28;20194;-78
2021/01/07 09:47:15;;;;;;;1.47;0.40;;;4.70;99.90;;;;;;5042012;28;20600;-78
2021/01/07 09:49:42;;;;;;;1.27;1.17;;;4.70;99.90;;;;;;5025459;28;20524;-78
2021/01/07 09:52:09;;;;;;;0.43;0.43;;;4.70;99.90;;;;;;5025336;28;20627;-79
2021/01/07 09:54:35;;;;;;;0.10;0.10;;;4.70;99.90;;;;;;5029001;28;20192;-79
2021/01/07 09:57:02;;;;;;;1.40;1.17;;;4.70;99.90;;;;;;5046710;28;20259;-79
2021/01/07 09:59:29;;;;;;;0.70;0.70;;;4.80;99.90;;;;;;5043406;28;20156;-78
2021/01/07 10:02:00;;;;;;;1.47;1.30;;;5.00;99.90;;;;;;5024547;28;20204;-77
2021/01/07 10:04:26;;;;;;;0.53;0.53;;;4.70;99.90;;;;;;5024932;28;20199;-80
2021/01/07 10:06:53;;;;;;;1.00;0.80;;;4.70;99.90;;;;;;5040460;28;20268;-80
2021/01/07 10:09:19;;;;;;;3.67;2.07;;;4.80;99.90;;;;;;5021161;28;20183;-79
2021/01/07 10:11:49;;;;;;;3.00;1.63;;;4.80;99.90;;;;;;5040260;28;20176;-78
2021/01/07 10:14:16;;;;;;;1.63;1.53;;;4.90;99.90;;;;;;5041749;28;20218;-79
2021/01/07 10:16:47;;;;;;;2.37;1.70;;;4.90;99.90;;;;;;5024309;28;20215;-79
2021/01/07 10:19:13;;;;;;;1.00;1.00;;;4.70;99.90;;;;;;5024787;28;20620;-80
2021/01/07 10:21:41;;;;;;;0.50;0.50;;;4.80;99.90;;;;;;5025741;28;20195;-83
2021/01/07 10:24:07;;;;;;;3.93;3.30;;;4.60;99.90;;;;;;5024344;28;20533;-79
2021/01/07 10:26:33;;;;;;;1.30;1.27;;;4.50;99.90;;;;;;5042081;28;20195;-78
2021/01/07 10:28:59;;;;;;;2.03;1.93;;;4.60;99.90;;;;;;5039407;28;20230;-77
2021/01/07 10:31:24;;;;;;;8.47;2.37;;;4.60;99.90;;;;;;5040094;28;20164;-80
2021/01/07 10:33:51;;;;;;;1.80;1.73;;;4.60;99.90;;;;;;5039127;28;20655;-81
2021/01/07 10:36:17;;;;;;;1.00;1.00;;;4.60;99.90;;;;;;5021284;28;20203;-78
2021/01/07 10:38:47;;;;;;;1.90;1.70;;;4.60;99.90;;;;;;5022942;28;20204;-79
2021/01/07 10:41:14;;;;;;;1.93;1.83;;;4.80;99.90;;;;;;5021501;28;20179;-79
2021/01/07 10:43:40;;;;;;;4.30;3.10;;;4.80;99.90;;;;;;5041055;28;20191;-79
2021/01/07 10:46:06;;;;;;;2.83;2.47;;;4.70;99.90;;;;;;5022865;28;20179;-79
2021/01/07 10:48:42;;;;;;;1.50;0.80;;;4.90;99.90;;;;;;5041091;28;20192;-78
2021/01/07 10:51:08;;;;;;;0.90;0.90;;;5.00;99.90;;;;;;5043560;28;20211;-79
2021/01/07 10:53:42;;;;;;;1.30;1.03;;;4.90;99.90;;;;;;5025195;28;20196;-79
2021/01/07 10:56:40;;;;;;;1.63;1.23;;;4.90;99.90;;;;;;5043508;28;20222;-85
2021/01/07 10:59:44;;;;;;;2.13;2.00;;;4.80;99.90;;;;;;5025457;28;20184;-78
2021/01/07 11:02:53;;;;;;;1.77;1.60;;;4.80;99.90;;;;;;4996731;28;20184;-78
2021/01/07 11:05:26;;;;;;;0.83;0.80;;;4.70;99.90;;;;;;5023458;28;20659;-79
2021/01/07 11:08:07;;;;;;;2.27;1.87;;;4.80;99.90;;;;;;5041468;28;20179;-79
2021/01/07 11:10:34;;;;;;;5.53;1.33;;;4.80;99.90;;;;;;5022366;28;20172;-78
2021/01/07 11:13:02;;;;;;;1.20;1.20;;;4.80;99.90;;;;;;5041337;28;20168;-79
2021/01/07 11:15:29;;;;;;;0.80;0.80;;;4.90;99.90;;;;;;5021772;28;20227;-79
2021/01/07 11:18:19;;;;;;;1.27;1.17;;;4.70;99.90;;;;;;5021399;28;20687;-78
2021/01/07 11:20:49;;;;;;;0.83;0.83;;;4.70;99.90;;;;;;5023542;28;20219;-79
2021/01/07 11:23:15;;;;;;;1.13;1.13;;;4.70;99.90;;;;;;5040968;28;20225;-80
2021/01/07 11:25:41;;;;;;;1.93;1.83;;;4.70;99.90;;;;;;5022240;28;20169;-78
2021/01/07 11:30:39;;;;;;;0.93;0.93;;;4.70;99.90;;;;;;5056346;28;20548;-78
2021/01/07 11:33:05;;;;;;;1.97;1.40;;;4.70;99.90;;;;;;5039855;28;20182;-80
2021/01/07 11:35:31;;;;;;;1.27;1.23;;;4.50;99.90;;;;;;5058637;28;20575;-80
2021/01/07 11:38:03;;;;;;;1.43;1.40;;;4.60;99.90;;;;;;5041096;28;20198;-78
2021/01/07 11:40:44;;;;;;;2.57;2.37;;;4.70;99.90;;;;;;5058273;28;20164;-78
2021/01/07 11:43:27;;;;;;;0.97;0.97;;;4.80;99.90;;;;;;5057511;28;20515;-78
2021/01/07 11:46:03;;;;;;;1.07;0.87;;;4.50;99.90;;;;;;5058880;28;20152;-77
2021/01/07 11:48:31;;;;;;;1.43;1.43;;;4.60;99.90;;;;;;5038904;28;20257;-79
2021/01/07 11:51:06;;;;;;;2.27;1.13;;;4.60;99.90;;;;;;5056196;28;20251;-78
2021/01/07 11:53:33;;;;;;;2.77;2.17;;;4.70;99.90;;;;;;5037992;28;20685;-78
2021/01/07 11:55:59;;;;;;;2.67;2.03;;;4.60;99.90;;;;;;5056120;28;20210;-78
2021/01/07 11:58:27;;;;;;;0.50;0.50;;;4.60;99.90;;;;;;5056215;28;20191;-78
2021/01/07 12:00:57;;;;;;;1.60;1.13;;;4.60;99.90;;;;;;5056397;28;20503;-78
2021/01/07 12:03:28;;;;;;;1.67;1.57;;;4.60;99.90;;;;;;5038479;28;20167;-78
2021/01/07 12:05:57;;;;;;;1.43;0.93;;;4.70;99.90;;;;;;5056029;28;20155;-78
2021/01/07 12:08:32;;;;;;;1.27;1.17;;;4.70;99.90;;;;;;5056023;28;20167;-79
2021/01/07 12:10:59;;;;;;;0.50;0.50;;;4.70;99.90;;;;;;5056393;28;20170;-81
2021/01/07 12:14:09;;;;;;;0.70;0.70;;;4.70;99.90;;;;;;5039291;28;20203;-80
2021/01/07 12:16:45;;;;;;;1.40;1.30;;;4.70;99.90;;;;;;5055671;28;20159;-81
2021/01/07 12:19:11;;;;;;;0.40;0.40;;;4.60;99.90;;;;;;5037905;28;20250;-80
2021/01/07 12:21:39;;;;;;;0.73;0.73;;;4.70;99.90;;;;;;5055408;28;20164;-80
2021/01/07 12:24:08;;;;;;;0.20;0.20;;;4.70;99.90;;;;;;5037250;28;20225;-79
2021/01/07 12:26:33;;;;;;;1.83;1.73;;;4.80;99.90;;;;;;5055146;28;20160;-79
2021/01/07 12:29:00;;;;;;;1.97;1.00;;;4.90;99.90;;;;;;5037316;28;20194;-79
2021/01/07 12:31:27;;;;;;;0.90;0.67;;;5.00;99.90;;;;;;5037434;28;20192;-79
2021/01/07 12:34:15;;;;;;;1.67;1.57;;;5.10;99.90;;;;;;5037111;28;20600;-80
2021/01/07 12:36:56;;;;;;;0.87;0.83;;;5.10;99.90;;;;;;5056145;28;20266;-77
2021/01/07 12:39:35;;;;;;;1.20;1.20;;;5.10;99.90;;;;;;5055822;28;20151;-80
2021/01/07 12:42:06;;;;;;;0.97;0.97;;;5.10;99.90;;;;;;5057943;28;20156;-79
2021/01/07 12:44:35;;;;;;;1.67;1.10;;;5.00;99.90;;;;;;5040640;28;20188;-79
2021/01/07 12:47:00;;;;;;;0.60;0.60;;;5.00;99.90;;;;;;5040577;28;20179;-79
2021/01/07 12:49:29;;;;;;;1.73;1.63;;;5.00;99.90;;;;;;5058172;28;20175;-79
2021/01/07 12:51:55;;;;;;;0.63;0.63;;;5.00;99.90;;;;;;5038575;28;20175;-79
2021/01/07 12:54:20;;;;;;;1.40;1.37;;;4.90;99.90;;;;;;5038839;28;20202;-79
2021/01/07 12:57:19;;;;;;;0.93;0.93;;;4.90;99.90;;;;;;5057172;28;20178;-77
2021/01/07 13:00:06;;;;;;;1.10;1.03;;;5.10;99.90;;;;;;5023966;28;20191;-82
2021/01/07 13:02:38;;;;;;;1.50;1.07;;;5.10;99.90;;;;;;5037458;28;20163;-81
2021/01/07 13:05:22;;;;;;;2.20;1.10;;;5.10;99.90;;;;;;5057017;28;20202;-80
2021/01/07 13:07:48;;;;;;;1.40;0.97;;;5.00;99.90;;;;;;5040203;28;20163;-81
2021/01/07 13:10:14;;;;;;;1.10;1.10;;;5.00;99.90;;;;;;5040027;28;20225;-81